Historyczne dane pomiarowe

Dodano dane terminowe – wersja testowa.

Dane z okresu 1951-2019

Wersja bazy: 1.34 [2019-03-16, lista zmian], aktualizacja planowana na 2019-04-15

Dane meteo z obszaru Polski uzyskane na podstawie danych udostępnionych przez Instytut Meteorologii i Gospodarki Wodnej – Państwowy Instytut Badawczy.

 

Wybierz Datę:    

       

TemperaturaWilgotnośćWiatrCiśnienieOpadyŚniegCzas trwania zjawisk
 Stacja t tx tn tng RH VA  wxwx mslp ppp RRR   cm mm wxwxwxwxwxwxwx
1952-07-16 16.7 21.5 14.6 13.0 67.0- 4.3 4.7---- 0.0------------
1952-07-17 18.0 24.8 10.1 5.3 51.5- 2.7 1.7---- 0.0------------
1952-07-18 18.7 28.5 10.8 6.9 67.8- 5.0 3.3---- 3.0------------
1952-07-19 16.0 20.6 11.3 9.2 61.5- 4.7 5.0---- 0.0------------
1952-07-20 18.4 22.0 10.4 9.9 70.5- 7.0 5.3---- 0.3------------
1952-07-21 17.4 22.8 15.5 15.2 59.0- 2.0 4.7---- 0.0------------
1952-07-22 19.5 27.0 9.5 4.9 45.5- 0.3 1.0---- 0.0------------
1952-07-23 17.9 23.0 14.2 9.3 62.5- 4.3 4.3---- 0.0------------
1952-07-24 15.0 20.2 7.8 4.7 65.0- 3.3 2.3---- 2.6------------
1952-07-25 14.3 21.0 11.7 7.4 79.0- 6.3 2.7---- 3.5------------
1952-07-26 14.0 20.3 11.1 9.9 77.8- 4.3 2.7---- 0.0------------
1952-07-27 16.2 23.0 8.1 6.0 74.0- 4.0 3.7---- 0.1------------
1952-07-28 23.5 31.5 11.1 8.1 53.0- 5.0 4.3---- 1.6------------
1952-07-29 13.8 23.5 12.4 13.0 96.3- 6.7 2.3---- 6.0------------
1952-07-30 17.3 23.5 8.3 6.0 72.3- 1.0 1.7---- 0.0------------
1952-07-31 19.0 25.7 10.5 7.4 63.3- 2.0 1.3---- 0.0------------
1952-08-01 20.2 27.6 10.6 7.9 53.0- 0.0 1.3---- 0.0------------
1952-08-02 21.5 29.9 11.1 8.1 53.5- 1.0 1.7---- 0.0------------
1952-08-03 24.5 32.8 13.4 9.6 48.8- 0.3 3.0---- 0.0------------
1952-08-04 19.5 23.0 16.7 12.8 77.8- 5.3 1.0---- 0.0------------
1952-08-05 23.2 31.1 13.8 10.1 55.8- 1.7 1.7---- 0.0------------
1952-08-06 26.1 33.9 14.5 10.9 41.5- 1.3 2.0---- 0.0------------
1952-08-07 24.2 35.3 20.1 16.2 58.5- 6.0 4.0---- 0.0------------
1952-08-08 21.0 27.7 17.7 14.2 74.5- 6.3 2.0---- 0.0------------
1952-08-09 21.7 29.4 15.5 11.4 60.5- 3.7 3.3---- 0.0------------
1952-08-10 19.1 23.2 16.5 15.5 75.3- 6.0 4.7---- 5.6------------
1952-08-11 19.6 26.4 13.8 10.4 58.0- 1.0 3.0---- 0.0------------
1952-08-12 23.4 30.0 15.4 11.4 56.8- 0.0 2.0---- 0.0------------
1952-08-13 27.1 35.7 18.2 14.9 51.3- 1.0 2.3---- 0.0------------
1952-08-14 26.1 35.1 17.4 14.1 52.8- 4.0 3.0---- 0.0------------
76.8 ms

 

Źródłem pochodzenia danych jest Instytut Meteorologii i Gospodarki Wodnej – Państwowy Instytut Badawczy. Dane Instytutu Meteorologii i Gospodarki Wodnej – Państwowego Instytutu Badawczego zostały przetworzone.

Dane źródłowe można odnaleźć na stronie https://dane.imgw.pl